ADDS METAR Data INFO
IDs: Format: Raw Decoded Include TAF

Data at: 0632 UTC 15 Dec 2017

KMVN 150556Z AUTO 00000KT 10SM OVC036 M01/M06 A3011 RMK AO2 SLP202 T10111061 10000 21011 400331017 58004 FZRANO TSNO
KMVN 150456Z AUTO VRB03KT 10SM OVC036 M01/M06 A3013 RMK AO2 SLP209 T10111061 FZRANO
KMVN 150356Z AUTO VRB04KT 10SM OVC036 M01/M06 A3013 RMK AO2 SLP207 T10111061 FZRANO
KMVN 150256Z AUTO 00000KT 10SM OVC036 M01/M06 A3013 RMK AO2 SLP206 T10061061 51007 FZRANO
KMVN 150156Z AUTO VRB04KT 10SM OVC036 M01/M06 A3012 RMK AO2 SLP205 T10061061 FZRANO
KMVN 150056Z AUTO 30003KT 10SM OVC036 00/M06 A3012 RMK AO2 SLP203 T00001061 FZRANO
KMVN 142356Z AUTO 28003KT 10SM OVC036 00/M07 A3010 RMK AO2 SLP199 T00001067 10011 20000 51012 FZRANO
KMVN 142256Z AUTO 27004KT 10SM OVC038 01/M07 A3009 RMK AO2 SLP195 T00061067 FZRANO
KMVN 142156Z AUTO 22004KT 10SM OVC038 01/M07 A3010 RMK AO2 SLP195 T00061067 FZRANO
KMVN 142056Z AUTO 22003KT 10SM OVC036 01/M07 A3007 RMK AO2 SLP186 T00111072 55002 FZRANO
KMVN 141956Z AUTO 00000KT 10SM OVC036 01/M07 A3006 RMK AO2 SLP184 T00111072 FZRANO
KMVN 141856Z AUTO 00000KT 10SM OVC034 01/M07 A3008 RMK AO2 SLP188 T00061072 FZRANO
KMVN 141756Z AUTO 00000KT 10SM OVC032 01/M07 A3008 RMK AO2 SLP187 T00061072 10006 21017 50004 FZRANO
KMVN 141656Z AUTO 03003KT 10SM OVC032 00/M07 A3009 RMK AO2 SLP192 T00001072 FZRANO
KMVN 141556Z AUTO 36004KT 10SM BKN030 M01/M07 A3009 RMK AO2 SLP193 T10061067 FZRANO
KMVN 141456Z AUTO 02004KT 10SM OVC030 M01/M07 A3006 RMK AO2 SLP184 T10111067 51024 FZRANO TSNO
KMVN 141356Z AUTO VRB03KT 10SM OVC030 M01/M07 A3004 RMK AO2 SLP176 T10111067 FZRANO
KMVN 141256Z AUTO 03007KT 10SM OVC030 M01/M07 A3003 RMK AO2 SLP170 T10111067 FZRANO
KMVN 141156Z AUTO 36004KT 10SM OVC030 M01/M06 A2999 RMK AO2 SLP159 T10111061 10033 21011 53020 FZRANO
KMVN 141056Z AUTO 36006KT 10SM OVC030 M01/M06 A2995 RMK AO2 SLP145 T10061061 FZRANO
KMVN 141042Z AUTO 01007G15KT 10SM OVC030 00/M06 A2994 RMK AO2 FZRANO
KMVN 140956Z AUTO 01006KT 10SM OVC028 01/M06 A2993 RMK AO2 SLP137 T00061056 FZRANO
KMVN 140927Z AUTO 01009KT 10SM OVC028 01/M05 A2993 RMK AO2 FZRANO
KMVN 140856Z AUTO 30008KT 220V350 10SM OVC032 02/M04 A2993 RMK AO2 SLP137 T00171044 51028 FZRANO
KMVN 140756Z AUTO VRB06KT 10SM OVC034 02/M04 A2991 RMK AO2 SLP131 T00221044 FZRANO
KMVN 140656Z AUTO VRB03KT 10SM OVC040 02/M04 A2987 RMK AO2 SLP117 T00221044 FZRANO
KMVN 140556Z AUTO VRB06G15KT 10SM OVC036 04/M04 A2985 RMK AO2 SLP109 T00391039 10100 20039 401281072 53033
KMVN 140456Z AUTO VRB06KT 10SM OVC032 04/M01 A2982 RMK AO2 SLP100 T00441011
KMVN 140356Z AUTO VRB04KT 10SM CLR 04/M01 A2977 RMK AO2 SLP085 T00441011
KMVN 140256Z AUTO 30009G20KT 270V350 10SM CLR 06/M01 A2975 RMK AO2 PRESRR SLP076 T00611006 53037
KMVN 140156Z AUTO 00000KT 10SM CLR 07/01 A2971 RMK AO2 SLP061 T00670011
KMVN 140056Z AUTO VRB03KT 10SM CLR 08/01 A2968 RMK AO2 SLP054 T00780011
KMVN 132356Z AUTO 32007G16KT 270V350 10SM FEW060 10/01 A2964 RMK AO2 PK WND 29028/2325 SLP039 T01000011 10128 20083 53027
KMVN 132256Z AUTO 25008KT 10SM BKN075 12/M01 A2959 RMK AO2 SLP022 T01221011
KMVN 132156Z AUTO 26011G19KT 10SM OVC070 13/M01 A2958 RMK AO2 SLP017 T01281011
KMVN 132056Z AUTO 24014G20KT 10SM FEW060 12/M03 A2956 RMK AO2 SLP012 T01221033 58011
KMVN 131956Z AUTO 23016KT 10SM FEW050 11/M04 A2957 RMK AO2 PK WND 23026/1937 SLP014 T01111044